Список аэропортов
Фактическая погода:

25 июня, 11:20
Температура: +17°C (+15.9*)
Ветер: западный 7 м/с
Давление: *760 мм
облачно
540 м
Время (МСК)Темп. СВетерВлажностьДавлениеОблачностьОсадки
09:00+15З, 6 м/с76%1012 гПаоблачно
10:00+16З, 6 м/с73%1012 гПас прояснениями
11:00+17З, 6 м/с67%1012 гПас прояснениями
12:00+18З, 6 м/с66%1012 гПаоблачно
13:00+19З, 6 м/с65%1012 гПаоблачно
14:00+18З, 6 м/с72%1012 гПаоблачно
15:00+19ЮЗ, 7 м/с68%1012 гПаоблачносл. дождь
16:00+18ЮЗ, 6 м/с73%1012 гПаоблачносл. дождь
17:00+18З, 6 м/с72%1012 гПаоблачносл. дождь
18:00+18З, 6 м/с68%1012 гПаоблачно
19:00+19З, 6 м/с68%1012 гПаоблачносл. дождь
20:00+19З, 5 м/с67%1012 гПаоблачносл. дождь
21:00+19З, 5 м/с66%1012 гПас прояснениямисл. дождь
22:00+18З, 4 м/с66%1012 гПаоблачно
23:00+18З, 4 м/с68%1013 гПас прояснениями
26 июня
00:00+18З, 3 м/с70%1014 гПаоблачно
01:00+17З, 4 м/с70%1014 гПас прояснениями
02:00+16СЗ, 4 м/с67%1014 гПамалооблачно
03:00+15СЗ, 3 м/с72%1015 гПаясно
04:00+13СЗ, 2 м/с80%1015 гПамалооблачно
05:00+12СЗ, 2 м/с88%1015 гПаясно
06:00+11С, 1 м/с94%1015 гПамалооблачно
07:00+10С, 1 м/с96%1016 гПаясно
08:00+10Штиль 95%1016 гПамалооблачно
09:00+12Штиль 85%1016 гПамалооблачно
10:00+14ЮВ, 1 м/с62%1017 гПас прояснениями
11:00+15В, 1 м/с54%1017 гПаоблачно
12:00+16В, 1 м/с50%1017 гПамалооблачно
13:00+17В, 1 м/с48%1017 гПас прояснениями
14:00+18С, 2 м/с47%1016 гПас прояснениями
15:00+19С, 2 м/с46%1016 гПаясно
16:00+20С, 2 м/с45%1016 гПас прояснениями
17:00+21С, 2 м/с44%1015 гПаоблачно
18:00+22С, 2 м/с42%1015 гПамалооблачно
19:00+22СВ, 2 м/с41%1015 гПаясно
20:00+22СВ, 2 м/с41%1015 гПаясно
21:00+21СВ, 3 м/с42%1015 гПаясно
22:00+21СВ, 4 м/с43%1015 гПаясно
23:00+20СВ, 4 м/с47%1015 гПаясно
27 июня
00:00+18СВ, 3 м/с53%1016 гПамалооблачно
01:00+17В, 7 м/с58%1016 гПаоблачно
02:00+16В, 6 м/с61%1016 гПаоблачно
03:00+15В, 4 м/с67%1016 гПаоблачно
04:00+14В, 3 м/с71%1017 гПаоблачно
05:00+14СВ, 3 м/с74%1016 гПаоблачно
06:00+13СВ, 3 м/с77%1016 гПаоблачно
07:00+12СВ, 4 м/с81%1016 гПас прояснениями
08:00+12СВ, 4 м/с81%1016 гПаясно
09:00+14СВ, 6 м/с75%1015 гПас прояснениями